createdAt,value
2022-12-11T00:03:41.862Z,5.60
2022-12-11T00:08:46.136Z,6.20
2022-12-11T00:13:49.121Z,7.20
2022-12-11T00:18:51.947Z,6.20
2022-12-11T00:23:56.210Z,6.00
2022-12-11T00:28:59.102Z,7.00
2022-12-11T00:34:02.251Z,6.40
2022-12-11T00:39:06.551Z,7.00
2022-12-11T00:44:09.357Z,6.20
2022-12-11T00:49:12.112Z,6.60
2022-12-11T00:54:16.297Z,6.20
2022-12-11T00:59:19.072Z,5.60
2022-12-11T01:04:21.863Z,6.00
2022-12-11T01:09:43.572Z,5.20
2022-12-11T01:14:46.348Z,6.00
2022-12-11T01:19:49.121Z,6.00
2022-12-11T01:24:53.348Z,5.20
2022-12-11T01:29:56.163Z,6.00
2022-12-11T01:34:58.917Z,5.20
2022-12-11T01:40:03.388Z,4.80
2022-12-11T01:45:26.847Z,6.00
2022-12-11T01:50:30.225Z,5.80
2022-12-11T01:55:34.779Z,3.00
2022-12-11T02:00:37.537Z,5.00
2022-12-11T02:05:40.318Z,5.20
2022-12-11T02:10:55.334Z,5.00
2022-12-11T02:16:00.645Z,5.00
2022-12-11T02:21:06.777Z,4.20
2022-12-11T02:26:21.564Z,5.00
2022-12-11T02:31:28.988Z,4.60
2022-12-11T02:36:33.428Z,6.00
2022-12-11T02:41:36.568Z,5.00
2022-12-11T02:46:40.810Z,5.00
2022-12-11T02:51:44.238Z,4.20
2022-12-11T02:56:48.050Z,3.80
2022-12-11T03:01:52.213Z,5.00
2022-12-11T03:06:56.327Z,4.60
2022-12-11T03:11:59.097Z,5.00
2022-12-11T03:17:06.434Z,3.00
2022-12-11T03:22:11.266Z,4.60
2022-12-11T03:27:16.734Z,4.20
2022-12-11T03:32:23.100Z,3.60
2022-12-11T03:37:39.303Z,5.00
2022-12-11T03:42:50.687Z,3.00
2022-12-11T03:47:55.024Z,3.40
2022-12-11T03:52:57.862Z,2.80
2022-12-11T03:58:00.683Z,3.00
2022-12-11T04:03:17.881Z,3.00
2022-12-11T04:08:21.657Z,2.20
2022-12-11T04:13:24.565Z,3.00
2022-12-11T04:18:46.261Z,3.00
2022-12-11T04:24:06.433Z,3.80
2022-12-11T04:29:09.205Z,2.00
2022-12-11T04:34:13.488Z,3.80
2022-12-11T04:39:16.251Z,4.00
2022-12-11T04:44:19.127Z,2.00
2022-12-11T04:49:23.217Z,3.60
2022-12-11T04:54:26.001Z,3.80
2022-12-11T04:59:28.810Z,3.80
2022-12-11T05:04:33.273Z,2.00
2022-12-11T05:09:36.050Z,2.00
2022-12-11T05:14:38.908Z,2.00
2022-12-11T05:19:43.086Z,3.80
2022-12-11T05:24:46.098Z,3.80
2022-12-11T05:29:48.919Z,3.80
2022-12-11T05:34:53.028Z,2.00
2022-12-11T05:39:55.756Z,3.80
2022-12-11T05:44:58.576Z,2.00
2022-12-11T05:50:02.706Z,2.00
2022-12-11T05:55:06.335Z,3.20
2022-12-11T06:00:10.611Z,2.80
2022-12-11T06:05:14.793Z,2.00
2022-12-11T06:10:17.744Z,2.00
2022-12-11T06:15:20.592Z,2.00
2022-12-11T06:20:24.747Z,2.00
2022-12-11T06:25:27.581Z,2.80
2022-12-11T06:30:38.516Z,2.00
2022-12-11T06:35:43.659Z,2.00
2022-12-11T06:40:46.567Z,2.00
2022-12-11T06:45:49.420Z,2.00
2022-12-11T06:50:53.592Z,2.00
2022-12-11T06:55:56.342Z,2.00
2022-12-11T07:00:59.162Z,2.00
2022-12-11T07:06:03.615Z,2.00
2022-12-11T07:11:06.621Z,2.40
2022-12-11T07:16:11.155Z,2.00
2022-12-11T07:21:15.564Z,2.00
2022-12-11T07:26:19.270Z,2.00
2022-12-11T07:31:25.218Z,2.00
2022-12-11T07:36:29.857Z,2.00
2022-12-11T07:41:32.737Z,2.00
2022-12-11T07:46:35.765Z,2.00
2022-12-11T07:51:39.946Z,1.00
2022-12-11T07:56:44.002Z,1.50
2022-12-11T08:01:46.912Z,1.80
2022-12-11T08:06:51.004Z,2.00
2022-12-11T08:11:53.881Z,2.00
2022-12-11T08:16:57.991Z,2.00
2022-12-11T08:22:02.213Z,2.00
2022-12-11T08:27:05.478Z,2.00
2022-12-11T08:32:12.230Z,2.00
2022-12-11T08:37:16.913Z,2.00
2022-12-11T08:42:19.840Z,1.00
2022-12-11T08:47:23.028Z,1.00
2022-12-11T08:52:27.369Z,2.00
2022-12-11T08:57:30.453Z,2.00
2022-12-11T09:02:33.365Z,1.80
2022-12-11T09:07:37.744Z,1.20
2022-12-11T09:12:40.540Z,1.80
2022-12-11T09:17:43.310Z,1.80
2022-12-11T09:22:47.495Z,1.00
2022-12-11T09:27:50.550Z,1.60
2022-12-11T09:32:53.538Z,1.00
2022-12-11T09:37:57.658Z,1.40
2022-12-11T09:43:01.632Z,1.00
2022-12-11T09:48:04.788Z,1.00
2022-12-11T09:53:13.626Z,1.00
2022-12-11T09:58:21.881Z,2.00
2022-12-11T10:04:00.461Z,1.00
2022-12-11T10:09:10.127Z,1.00
2022-12-11T10:14:15.327Z,1.00
2022-12-11T10:19:19.529Z,1.00
2022-12-11T10:25:09.397Z,1.60
2022-12-11T10:30:02.473Z,1.00
2022-12-11T10:35:06.587Z,0.80
2022-12-11T10:40:11.687Z,1.00
2022-12-11T10:45:17.041Z,1.00
2022-12-11T10:50:23.715Z,1.00
2022-12-11T10:55:29.569Z,0.40
2022-12-11T11:00:35.481Z,1.00
2022-12-11T11:05:38.836Z,0.40
2022-12-11T11:10:52.964Z,1.00
2022-12-11T11:16:00.436Z,1.00
2022-12-11T11:21:03.311Z,1.00
2022-12-11T11:26:09.004Z,1.00
2022-12-11T11:31:12.879Z,1.00
2022-12-11T11:36:21.265Z,1.60
2022-12-11T11:41:28.823Z,1.00
2022-12-11T11:46:35.084Z,0.40
2022-12-11T11:51:40.090Z,1.00
2022-12-11T11:56:44.198Z,1.00
2022-12-11T12:01:47.506Z,1.00
2022-12-11T12:07:10.047Z,1.40
2022-12-11T12:12:25.507Z,1.00
2022-12-11T12:17:36.135Z,1.00
2022-12-11T12:22:55.183Z,1.00
2022-12-11T12:28:03.318Z,0.80
2022-12-11T12:33:16.007Z,1.00
2022-12-11T12:38:22.591Z,1.00
2022-12-11T12:43:38.360Z,0.80
2022-12-11T12:48:41.289Z,1.00
2022-12-11T12:53:45.535Z,1.00
2022-12-11T12:58:49.699Z,1.00
2022-12-11T13:03:55.762Z,1.00
2022-12-11T13:08:58.643Z,1.00
2022-12-11T13:14:07.523Z,1.00
2022-12-11T13:19:18.504Z,1.00
2022-12-11T13:24:26.641Z,0.80
2022-12-11T13:29:32.036Z,0.00
2022-12-11T13:34:36.213Z,1.00
2022-12-11T13:39:39.192Z,0.60
2022-12-11T13:44:43.385Z,0.40
2022-12-11T13:49:49.259Z,1.00
2022-12-11T13:54:54.065Z,1.00
2022-12-11T13:59:59.435Z,0.00
2022-12-11T14:05:03.630Z,0.00
2022-12-11T14:10:08.065Z,1.00
2022-12-11T14:15:14.700Z,0.00
2022-12-11T14:20:19.627Z,2.00
2022-12-11T14:25:23.889Z,7.80
2022-12-11T14:30:29.023Z,12.00
2022-12-11T14:35:38.644Z,7.40
2022-12-11T14:40:43.519Z,7.20
2022-12-11T14:45:48.432Z,8.00
2022-12-11T14:50:52.744Z,5.00
2022-12-11T14:56:04.237Z,6.00
2022-12-11T15:01:21.215Z,5.00
2022-12-11T15:06:26.482Z,4.60
2022-12-11T15:11:31.723Z,5.20
2022-12-11T15:16:38.575Z,6.00
2022-12-11T15:21:41.479Z,5.00
2022-12-11T15:26:46.293Z,5.00
2022-12-11T15:31:59.988Z,5.00
2022-12-11T15:37:02.930Z,3.40
2022-12-11T15:42:05.929Z,5.00
2022-12-11T15:47:14.657Z,3.00
2022-12-11T15:52:17.716Z,5.00
2022-12-11T15:57:21.169Z,5.00
2022-12-11T16:02:26.739Z,3.00
2022-12-11T16:07:32.603Z,3.00
2022-12-11T16:12:35.489Z,3.00
2022-12-11T16:17:40.144Z,5.00
2022-12-11T16:22:42.955Z,3.40
2022-12-11T16:27:45.688Z,2.60
2022-12-11T16:32:49.808Z,5.00
2022-12-11T16:37:53.019Z,3.00
2022-12-11T16:42:55.998Z,2.40
2022-12-11T16:48:00.155Z,3.40
2022-12-11T16:53:03.105Z,2.20
2022-12-11T16:58:05.934Z,2.40
2022-12-11T17:03:10.381Z,2.00
2022-12-11T17:08:13.375Z,2.00
2022-12-11T17:13:16.650Z,3.00
2022-12-11T17:18:20.758Z,5.00
2022-12-11T17:23:26.035Z,2.00
2022-12-11T17:28:28.824Z,3.00
2022-12-11T17:33:32.909Z,2.80
2022-12-11T17:38:35.756Z,2.40
2022-12-11T17:43:38.495Z,2.60
2022-12-11T17:48:43.036Z,2.00
2022-12-11T17:53:45.878Z,2.40
2022-12-11T17:58:48.852Z,3.00
2022-12-11T18:03:53.103Z,2.80
2022-12-11T18:08:56.126Z,2.80
2022-12-11T18:13:58.903Z,2.60
2022-12-11T18:19:03.170Z,3.40
2022-12-11T18:24:06.950Z,3.40
2022-12-11T18:29:09.822Z,3.00
2022-12-11T18:34:14.335Z,4.20
2022-12-11T18:39:17.197Z,3.00
2022-12-11T18:44:22.568Z,3.80
2022-12-11T18:49:26.814Z,5.60
2022-12-11T18:54:29.614Z,4.40
2022-12-11T18:59:32.558Z,4.80
2022-12-11T19:04:37.590Z,4.60
2022-12-11T19:09:44.832Z,3.00
2022-12-11T19:14:50.538Z,4.20
2022-12-11T19:19:54.805Z,4.80
2022-12-11T19:24:57.641Z,4.80
2022-12-11T19:30:00.769Z,4.80
2022-12-11T19:35:05.257Z,4.80
2022-12-11T19:40:09.559Z,5.40
2022-12-11T19:45:12.577Z,5.20
2022-12-11T19:50:16.827Z,5.80
2022-12-11T19:55:21.566Z,5.80
2022-12-11T20:00:24.676Z,4.80
2022-12-11T20:05:28.863Z,5.60
2022-12-11T20:10:31.587Z,5.80
2022-12-11T20:15:34.352Z,5.80
2022-12-11T20:20:38.788Z,5.60
2022-12-11T20:25:41.579Z,4.80
2022-12-11T20:30:44.730Z,7.00
2022-12-11T20:35:48.934Z,5.80
2022-12-11T20:40:51.837Z,5.20
2022-12-11T20:45:54.726Z,5.60
2022-12-11T20:51:03.729Z,5.80
2022-12-11T20:56:09.891Z,5.60
2022-12-11T21:01:15.061Z,5.40
2022-12-11T21:06:25.302Z,6.00
2022-12-11T21:11:28.151Z,6.00
2022-12-11T21:16:30.993Z,5.60
2022-12-11T21:21:36.750Z,5.20
2022-12-11T21:26:39.542Z,3.00
2022-12-11T21:31:42.476Z,4.80
2022-12-11T21:36:47.530Z,3.00
2022-12-11T21:41:50.578Z,4.80
2022-12-11T21:46:53.434Z,4.80
2022-12-11T21:51:57.664Z,5.60
2022-12-11T21:57:00.455Z,3.00
2022-12-11T22:02:03.294Z,4.80
2022-12-11T22:07:07.544Z,2.40
2022-12-11T22:12:11.172Z,4.20
2022-12-11T22:17:13.952Z,3.40
2022-12-11T22:22:19.008Z,3.80
2022-12-11T22:27:23.889Z,3.00
2022-12-11T22:32:27.513Z,4.80
2022-12-11T22:37:31.879Z,4.20
2022-12-11T22:42:34.855Z,3.00
2022-12-11T22:47:38.113Z,4.80
2022-12-11T22:52:42.383Z,3.00
2022-12-11T22:57:45.171Z,2.00
2022-12-11T23:02:48.487Z,3.00
2022-12-11T23:07:52.904Z,3.40
2022-12-11T23:12:55.758Z,3.00
2022-12-11T23:17:58.548Z,3.00
2022-12-11T23:23:02.715Z,5.00
2022-12-11T23:28:05.618Z,4.60
2022-12-11T23:33:08.754Z,4.00
2022-12-11T23:38:13.228Z,4.20
2022-12-11T23:43:16.077Z,3.20
2022-12-11T23:48:18.911Z,3.00
2022-12-11T23:53:23.026Z,4.20
2022-12-11T23:58:25.829Z,3.00
